Time;durP1;ratioP1;P1;durP2;ratioP2;P2;SDS_P1;SDS_P2;PMS_P1;PMS_P2;Temp;Humidity;BMP_temperature;BMP_pressure;BME280_temperature;BME280_humidity;BME280_pressure;Samples;Min_cycle;Max_cycle;Signal;HPM_P1;HPM_P2
2021/10/05 00:00:19;;;;;;;;;;;;;;;11.19;48.04;95367.75;4987767;28;19926;-62
2021/10/05 00:02:44;;;;;;;;;;;;;;;11.10;48.37;95362.53;4989193;28;19932;-62
2021/10/05 00:05:10;;;;;;;;;;;;;;;11.13;48.36;95359.47;4987039;28;19991;-62
2021/10/05 00:07:35;;;;;;;;;;;;;;;11.08;48.79;95372.50;4989516;28;20209;-62
2021/10/05 00:10:00;;;;;;;;;;;;;;;11.02;48.77;95378.59;4986864;28;19918;-61
2021/10/05 00:12:25;;;;;;;;;;;;;;;11.02;48.71;95383.09;4989122;28;19997;-62
2021/10/05 00:14:51;;;;;;;;;;;;;;;11.07;48.55;95368.19;4993473;28;19929;-62
2021/10/05 00:17:19;;;;;;;;;;;;;;;11.11;48.39;95364.16;4990873;28;19929;-61
2021/10/05 00:19:44;;;;;;;;;;;;;;;10.92;48.94;95370.06;4998564;28;20422;-61
2021/10/05 00:22:09;;;;;;;;;;;;;;;10.95;48.77;95364.38;4990862;28;19932;-62
2021/10/05 00:24:35;;;;;;;;;;;;;;;11.05;48.54;95361.41;5002302;28;20371;-61
2021/10/05 00:27:00;;;;;;;;;;;;;;;11.16;48.29;95352.13;4984337;28;19921;-60
2021/10/05 00:29:25;;;;;;;;;;;;;;;11.12;48.73;95346.34;4987102;28;19936;-61
2021/10/05 00:31:50;;;;;;;;;;;;;;;11.17;48.58;95348.44;4994434;28;19928;-62
2021/10/05 00:34:16;;;;;;;;;;;;;;;11.29;48.51;95348.78;4986493;28;19956;-61
2021/10/05 00:36:42;;;;;;;;;;;;;;;11.15;48.99;95337.97;4988587;28;19921;-60
2021/10/05 00:39:07;;;;;;;;;;;;;;;11.12;48.80;95331.19;4986021;28;20028;-61
2021/10/05 00:41:33;;;;;;;;;;;;;;;11.15;48.72;95335.31;4989983;28;20048;-63
2021/10/05 00:43:59;;;;;;;;;;;;;;;11.04;49.18;95312.63;5020380;28;19921;-60
2021/10/05 00:46:25;;;;;;;;;;;;;;;11.02;49.47;95322.66;5023100;28;19925;-62
2021/10/05 00:48:50;;;;;;;;;;;;;;;11.10;48.88;95316.41;5020577;28;20426;-61
2021/10/05 00:51:16;;;;;;;;;;;;;;;11.19;48.75;95314.44;5023339;28;19917;-63
2021/10/05 00:53:41;;;;;;;;;;;;;;;11.27;48.58;95295.69;5023827;28;19913;-62
2021/10/05 00:56:06;;;;;;;;;;;;;;;11.30;48.38;95297.97;5023175;28;19943;-62
2021/10/05 00:58:32;;;;;;;;;;;;;;;11.27;48.40;95301.00;5021951;28;20241;-63
2021/10/05 01:00:57;;;;;;;;;;;;;;;11.29;48.32;95296.28;5023602;28;19969;-63
2021/10/05 01:03:22;;;;;;;;;;;;;;;11.18;48.54;95296.81;5023268;28;20406;-61
2021/10/05 01:05:47;;;;;;;;;;;;;;;11.26;48.37;95296.69;5017479;28;20319;-61
2021/10/05 01:08:17;;;;;;;;;;;;;;;11.21;48.32;95296.41;5023567;28;19993;-61
2021/10/05 01:10:42;;;;;;;;;;;;;;;11.16;48.50;95283.69;5023037;28;19989;-61
2021/10/05 01:13:08;;;;;;;;;;;;;;;11.08;48.42;95281.94;5023513;28;20377;-63
2021/10/05 01:15:33;;;;;;;;;;;;;;;11.04;48.58;95285.97;5022810;28;20075;-61
2021/10/05 01:17:58;;;;;;;;;;;;;;;11.09;48.56;95291.59;5023092;28;20481;-63
2021/10/05 01:20:23;;;;;;;;;;;;;;;10.83;49.87;95290.28;5023763;28;19992;-63
2021/10/05 01:22:49;;;;;;;;;;;;;;;10.93;48.98;95289.16;5026805;28;20282;-60
2021/10/05 01:25:15;;;;;;;;;;;;;;;11.02;48.78;95290.69;5027010;28;19977;-60
2021/10/05 01:27:44;;;;;;;;;;;;;;;11.05;48.79;95289.47;5026624;28;20381;-59
2021/10/05 01:30:09;;;;;;;;;;;;;;;11.11;48.84;95283.41;5026508;28;19980;-60
2021/10/05 01:32:34;;;;;;;;;;;;;;;10.97;49.20;95283.25;5026977;28;20068;-60
2021/10/05 01:35:00;;;;;;;;;;;;;;;11.18;48.67;95270.19;5026395;28;19997;-61
2021/10/05 01:37:25;;;;;;;;;;;;;;;11.08;48.98;95268.59;5027291;28;20194;-61
2021/10/05 01:39:50;;;;;;;;;;;;;;;11.11;49.09;95260.28;5026673;28;19995;-60
2021/10/05 01:42:16;;;;;;;;;;;;;;;11.23;48.42;95260.59;5026135;28;19965;-61
2021/10/05 01:44:41;;;;;;;;;;;;;;;11.19;48.68;95251.31;5026597;28;20623;-62
2021/10/05 01:47:06;;;;;;;;;;;;;;;11.20;48.65;95252.97;5026229;28;20001;-63
2021/10/05 01:49:32;;;;;;;;;;;;;;;11.27;48.64;95253.03;5025079;28;20060;-62
2021/10/05 01:51:57;;;;;;;;;;;;;;;11.19;48.58;95247.84;5026618;28;19990;-62
2021/10/05 01:54:22;;;;;;;;;;;;;;;11.17;48.84;95241.88;5024417;28;20501;-62
2021/10/05 01:56:47;;;;;;;;;;;;;;;11.05;49.07;95239.69;5026765;28;20015;-63
2021/10/05 01:59:12;;;;;;;;;;;;;;;11.09;49.17;95237.50;5025953;28;20033;-63
2021/10/05 02:01:41;;;;;;;;;;;;;;;11.16;48.71;95237.56;5025101;28;20080;-61
2021/10/05 02:04:06;;;;;;;;;;;;;;;11.09;49.01;95232.97;5026111;28;19993;-61
2021/10/05 02:06:32;;;;;;;;;;;;;;;11.18;48.95;95230.22;5020350;28;20009;-60
2021/10/05 02:08:57;;;;;;;;;;;;;;;11.21;49.24;95222.66;5026269;28;20350;-62
2021/10/05 02:11:23;;;;;;;;;;;;;;;11.29;48.66;95216.34;5026064;28;20039;-62
2021/10/05 02:13:48;;;;;;;;;;;;;;;11.21;48.86;95213.81;5024865;28;19969;-61
2021/10/05 02:16:13;;;;;;;;;;;;;;;11.29;48.63;95207.53;5025414;28;20546;-60
2021/10/05 02:18:38;;;;;;;;;;;;;;;11.13;48.98;95204.94;5019196;28;20001;-61
2021/10/05 02:21:04;;;;;;;;;;;;;;;11.22;48.87;95202.97;5026018;28;20270;-62
2021/10/05 02:26:13;;;;;;;;;;;;;;;11.11;48.67;95201.66;5025736;28;20503;-60
2021/10/05 02:28:38;;;;;;;;;;;;;;;11.08;48.91;95196.69;5026468;28;19993;-63
2021/10/05 02:31:03;;;;;;;;;;;;;;;11.16;48.77;95192.28;5018031;28;19994;-62
2021/10/05 02:33:29;;;;;;;;;;;;;;;11.09;48.64;95187.69;5006131;28;20072;-62
2021/10/05 02:35:55;;;;;;;;;;;;;;;11.23;48.46;95183.31;5006056;28;20001;-60
2021/10/05 02:38:20;;;;;;;;;;;;;;;11.23;48.51;95188.66;5005510;28;19998;-62
2021/10/05 02:40:45;;;;;;;;;;;;;;;11.18;48.61;95182.25;5006159;28;19989;-61
2021/10/05 02:43:10;;;;;;;;;;;;;;;11.23;48.63;95180.66;5005315;28;19921;-62
2021/10/05 02:45:36;;;;;;;;;;;;;;;11.12;48.88;95174.00;5006235;28;19926;-62
2021/10/05 02:48:01;;;;;;;;;;;;;;;11.13;48.90;95172.97;5003047;28;20414;-62
2021/10/05 02:50:26;;;;;;;;;;;;;;;11.23;48.73;95167.34;5005435;28;19970;-60
2021/10/05 02:52:51;;;;;;;;;;;;;;;11.23;48.59;95169.16;5005928;28;20258;-61
2021/10/05 02:55:17;;;;;;;;;;;;;;;11.06;48.87;95166.75;5006691;28;20025;-61
2021/10/05 02:57:42;;;;;;;;;;;;;;;11.29;48.44;95163.06;5002336;28;19994;-60
2021/10/05 03:00:07;;;;;;;;;;;;;;;11.31;48.30;95162.84;5021078;28;19989;-62
2021/10/05 03:02:33;;;;;;;;;;;;;;;11.04;49.43;95168.78;5024049;28;20517;-62
2021/10/05 03:04:58;;;;;;;;;;;;;;;11.17;48.80;95143.28;5022607;28;20380;-62
2021/10/05 03:07:23;;;;;;;;;;;;;;;11.20;48.85;95145.56;5018380;28;19918;-62
2021/10/05 03:09:49;;;;;;;;;;;;;;;11.05;48.85;95140.31;5025840;28;19921;-60
2021/10/05 03:12:14;;;;;;;;;;;;;;;11.16;48.45;95139.81;5024745;28;20237;-60
2021/10/05 03:14:39;;;;;;;;;;;;;;;11.19;48.68;95144.72;5023990;28;19932;-60
2021/10/05 03:17:04;;;;;;;;;;;;;;;11.20;48.62;95132.25;5024399;28;19932;-62
2021/10/05 03:19:30;;;;;;;;;;;;;;;11.38;48.07;95127.25;5020958;28;19925;-61
2021/10/05 03:21:56;;;;;;;;;;;;;;;11.20;49.18;95119.75;5023188;28;19917;-61
2021/10/05 03:24:22;;;;;;;;;;;;;;;11.08;48.95;95119.44;5024626;28;19921;-60
2021/10/05 03:26:47;;;;;;;;;;;;;;;11.22;48.77;95131.03;5024466;28;19924;-61
2021/10/05 03:29:13;;;;;;;;;;;;;;;11.06;49.37;95126.81;5024781;28;19919;-62
2021/10/05 03:31:38;;;;;;;;;;;;;;;10.95;49.25;95124.66;5024463;28;19928;-61
2021/10/05 03:34:03;;;;;;;;;;;;;;;10.85;50.26;95120.47;5024191;28;20008;-60
2021/10/05 03:36:28;;;;;;;;;;;;;;;11.08;49.00;95131.94;5024657;28;20349;-61
2021/10/05 03:38:54;;;;;;;;;;;;;;;11.16;48.84;95123.00;5023773;28;19927;-61
2021/10/05 03:41:19;;;;;;;;;;;;;;;11.22;48.89;95116.91;5024251;28;19925;-61
2021/10/05 03:43:44;;;;;;;;;;;;;;;10.91;49.66;95113.56;5024431;28;20344;-59
2021/10/05 03:46:10;;;;;;;;;;;;;;;11.03;49.29;95111.19;5024484;28;20072;-61
2021/10/05 03:48:35;;;;;;;;;;;;;;;10.94;49.34;95117.66;5024414;28;19967;-61
2021/10/05 03:51:00;;;;;;;;;;;;;;;10.79;49.78;95112.44;5015687;28;19929;-61
2021/10/05 03:53:25;;;;;;;;;;;;;;;10.95;49.43;95111.34;5025269;28;20144;-62
2021/10/05 03:55:52;;;;;;;;;;;;;;;10.94;49.90;95109.69;5020055;28;19947;-62
2021/10/05 03:58:18;;;;;;;;;;;;;;;10.29;51.74;95100.72;5018653;28;20378;-62
2021/10/05 04:00:43;;;;;;;;;;;;;;;10.79;50.09;95099.94;5020550;28;19921;-62
2021/10/05 04:03:08;;;;;;;;;;;;;;;10.91;49.36;95107.44;5019592;28;19921;-62
2021/10/05 04:05:33;;;;;;;;;;;;;;;11.10;48.99;95104.13;5016226;28;20305;-60
2021/10/05 04:07:59;;;;;;;;;;;;;;;10.95;49.20;95100.69;5024079;28;20232;-61
2021/10/05 04:10:24;;;;;;;;;;;;;;;11.07;48.89;95092.97;5022514;28;20198;-61
2021/10/05 04:12:49;;;;;;;;;;;;;;;10.98;49.17;95087.81;5024292;28;19917;-61
2021/10/05 04:15:14;;;;;;;;;;;;;;;11.10;48.69;95090.81;5024160;28;20558;-63
2021/10/05 04:17:40;;;;;;;;;;;;;;;11.07;48.79;95088.47;5026140;28;19972;-61
2021/10/05 04:20:05;;;;;;;;;;;;;;;10.23;51.09;95088.16;5025298;28;19970;-62
2021/10/05 04:22:31;;;;;;;;;;;;;;;10.33;50.69;95091.34;5023602;28;19978;-60
2021/10/05 04:24:56;;;;;;;;;;;;;;;10.66;50.02;95081.19;5024382;28;20389;-62
2021/10/05 04:27:21;;;;;;;;;;;;;;;10.85;49.61;95074.41;5023864;28;19917;-60
2021/10/05 04:29:47;;;;;;;;;;;;;;;11.05;49.01;95068.41;5023845;28;20345;-60
2021/10/05 04:32:12;;;;;;;;;;;;;;;11.07;49.07;95061.00;5023632;28;20225;-61
2021/10/05 04:34:37;;;;;;;;;;;;;;;11.18;48.58;95059.69;5023641;28;19921;-60
2021/10/05 04:37:03;;;;;;;;;;;;;;;11.19;48.49;95053.34;5024329;28;19917;-62
2021/10/05 04:39:28;;;;;;;;;;;;;;;11.02;48.75;95050.97;5021559;28;19987;-62
2021/10/05 04:41:53;;;;;;;;;;;;;;;11.17;48.68;95036.72;5010395;28;19916;-62
2021/10/05 04:44:18;;;;;;;;;;;;;;;11.19;48.67;95043.50;5023711;28;20095;-59
2021/10/05 04:46:44;;;;;;;;;;;;;;;11.22;48.40;95042.31;5023688;28;19925;-63
2021/10/05 04:49:09;;;;;;;;;;;;;;;11.12;48.47;95043.47;5023973;28;20384;-60
2021/10/05 04:51:34;;;;;;;;;;;;;;;11.09;48.60;95035.84;5028036;28;19934;-61
2021/10/05 04:54:00;;;;;;;;;;;;;;;11.04;48.89;95038.25;5027914;28;20563;-62
2021/10/05 04:56:25;;;;;;;;;;;;;;;11.06;48.89;95044.22;5026172;28;19957;-62
2021/10/05 04:58:50;;;;;;;;;;;;;;;10.91;49.09;95035.53;5027341;28;19964;-62
2021/10/05 05:01:15;;;;;;;;;;;;;;;11.03;49.02;95033.97;5027955;28;20220;-60
2021/10/05 05:03:41;;;;;;;;;;;;;;;10.78;49.21;95037.03;5027832;28;19921;-61
2021/10/05 05:06:06;;;;;;;;;;;;;;;10.96;49.11;95030.44;5021924;28;20362;-62
2021/10/05 05:08:31;;;;;;;;;;;;;;;10.95;50.50;95032.25;5027668;28;19975;-61
2021/10/05 05:10:56;;;;;;;;;;;;;;;10.87;49.13;95030.56;5027554;28;19992;-61
2021/10/05 05:13:22;;;;;;;;;;;;;;;11.05;48.62;95026.56;5028299;28;19963;-62
2021/10/05 05:15:47;;;;;;;;;;;;;;;10.99;48.94;95016.72;5013641;28;20350;-62
2021/10/05 05:18:12;;;;;;;;;;;;;;;10.96;49.30;95006.44;5007645;28;19921;-62
2021/10/05 05:20:38;;;;;;;;;;;;;;;10.99;48.84;95014.88;5007229;28;19925;-62
2021/10/05 05:23:03;;;;;;;;;;;;;;;11.07;48.68;95007.75;5015109;28;20417;-63
2021/10/05 05:25:28;;;;;;;;;;;;;;;11.10;48.34;95005.56;5027437;28;19921;-63
2021/10/05 05:27:53;;;;;;;;;;;;;;;10.81;49.38;95010.03;5027614;28;20384;-60
2021/10/05 05:30:19;;;;;;;;;;;;;;;10.90;48.96;95004.56;5027204;28;20409;-63
2021/10/05 05:32:44;;;;;;;;;;;;;;;10.89;48.68;95006.41;5027523;28;19921;-61
2021/10/05 05:35:09;;;;;;;;;;;;;;;10.79;49.49;95011.25;5023474;28;20485;-63
2021/10/05 05:37:34;;;;;;;;;;;;;;;10.96;48.82;95017.09;5027098;28;19921;-60
2021/10/05 05:40:00;;;;;;;;;;;;;;;10.96;48.62;95009.94;5022245;28;20626;-61
2021/10/05 05:42:25;;;;;;;;;;;;;;;10.93;48.45;94998.84;5019646;28;19921;-60
2021/10/05 05:44:52;;;;;;;;;;;;;;;10.74;49.54;94998.50;5026323;28;19928;-61
2021/10/05 05:47:17;;;;;;;;;;;;;;;10.85;48.83;94995.31;5025569;28;20429;-62
2021/10/05 05:49:42;;;;;;;;;;;;;;;10.87;49.19;94995.97;5026910;28;19920;-60
2021/10/05 05:52:08;;;;;;;;;;;;;;;10.86;48.56;94990.81;5026428;28;19921;-60
2021/10/05 05:54:33;;;;;;;;;;;;;;;10.96;49.06;94980.66;5026654;28;19924;-62
2021/10/05 05:56:58;;;;;;;;;;;;;;;10.82;49.78;94979.75;5026369;28;19995;-61
2021/10/05 05:59:23;;;;;;;;;;;;;;;10.94;48.95;94981.84;5026465;28;19956;-62
2021/10/05 06:01:49;;;;;;;;;;;;;;;10.58;49.64;94984.47;5025777;28;20382;-62
2021/10/05 06:04:14;;;;;;;;;;;;;;;10.76;49.30;94983.19;5026093;28;19921;-62
2021/10/05 06:06:39;;;;;;;;;;;;;;;10.31;49.69;94984.31;5022395;28;19928;-62
2021/10/05 06:09:04;;;;;;;;;;;;;;;10.53;50.82;94980.75;5026625;28;19918;-62
2021/10/05 06:11:32;;;;;;;;;;;;;;;10.56;50.40;94981.22;5025970;28;20401;-62
2021/10/05 06:13:58;;;;;;;;;;;;;;;10.63;49.32;94983.91;5025792;28;19995;-62
2021/10/05 06:16:23;;;;;;;;;;;;;;;10.72;49.06;94981.94;5025622;28;20417;-62
2021/10/05 06:18:48;;;;;;;;;;;;;;;10.59;49.20;94980.81;5020368;28;20388;-62
2021/10/05 06:21:14;;;;;;;;;;;;;;;10.71;49.72;94977.63;5024457;28;19940;-62
2021/10/05 06:23:39;;;;;;;;;;;;;;;10.78;50.92;94961.69;5025524;28;20386;-63
2021/10/05 06:26:05;;;;;;;;;;;;;;;10.77;49.15;94960.84;5025072;28;20615;-62
2021/10/05 06:28:30;;;;;;;;;;;;;;;10.88;48.46;94965.63;5014790;28;19924;-63
2021/10/05 06:30:55;;;;;;;;;;;;;;;10.97;48.17;94960.16;5025633;28;19923;-63
2021/10/05 06:33:21;;;;;;;;;;;;;;;10.91;48.04;94960.94;5026361;28;19925;-63
2021/10/05 06:35:46;;;;;;;;;;;;;;;10.81;49.75;94961.31;5017995;28;19967;-63
2021/10/05 06:38:13;;;;;;;;;;;;;;;10.88;49.13;94965.63;5022371;28;20374;-63
2021/10/05 06:40:38;;;;;;;;;;;;;;;10.85;49.21;94967.88;5019553;28;20354;-63
2021/10/05 06:43:04;;;;;;;;;;;;;;;10.68;49.42;94962.84;5019986;28;19951;-61
2021/10/05 06:45:29;;;;;;;;;;;;;;;10.54;49.35;94964.59;5021569;28;19928;-61
2021/10/05 06:47:54;;;;;;;;;;;;;;;10.73;48.59;94964.94;5014976;28;20311;-60
2021/10/05 06:50:19;;;;;;;;;;;;;;;11.06;47.84;94959.00;5021155;28;19944;-59
2021/10/05 06:52:45;;;;;;;;;;;;;;;11.05;47.87;94959.97;5021322;28;19921;-62
2021/10/05 06:55:10;;;;;;;;;;;;;;;11.13;47.93;94956.38;5002862;28;19921;-60
2021/10/05 06:57:35;;;;;;;;;;;;;;;11.01;47.71;94948.09;5019322;28;20399;-60
2021/10/05 07:00:01;;;;;;;;;;;;;;;11.07;48.80;94954.47;5021490;28;19925;-62
2021/10/05 07:02:26;;;;;;;;;;;;;;;11.17;48.50;94954.13;5020935;28;19925;-60
2021/10/05 07:04:51;;;;;;;;;;;;;;;11.34;48.22;94952.78;5020930;28;19952;-62
2021/10/05 07:07:17;;;;;;;;;;;;;;;11.11;47.38;94942.41;5019063;28;19921;-62
2021/10/05 07:09:42;;;;;;;;;;;;;;;10.89;48.30;94942.50;5020099;28;19925;-62
2021/10/05 07:12:07;;;;;;;;;;;;;;;11.04;48.07;94939.69;5006981;28;19931;-62
2021/10/05 07:14:32;;;;;;;;;;;;;;;10.54;48.63;94945.16;5013110;28;20240;-60
2021/10/05 07:16:58;;;;;;;;;;;;;;;9.94;50.00;94943.63;5021424;28;20333;-62
2021/10/05 07:19:23;;;;;;;;;;;;;;;10.48;51.30;94936.91;5009760;28;20019;-62
2021/10/05 07:21:48;;;;;;;;;;;;;;;10.59;48.78;94927.59;5021090;28;19931;-62
2021/10/05 07:24:13;;;;;;;;;;;;;;;10.86;50.57;94924.25;5021113;28;20553;-62
2021/10/05 07:26:39;;;;;;;;;;;;;;;10.57;51.94;94918.16;5020791;28;20035;-62
2021/10/05 07:29:04;;;;;;;;;;;;;;;10.60;52.44;94918.59;5020203;28;19932;-62
2021/10/05 07:31:34;;;;;;;;;;;;;;;10.59;52.46;94919.59;5020527;28;20386;-60
2021/10/05 07:33:59;;;;;;;;;;;;;;;10.61;52.37;94900.78;5013213;28;20382;-60
2021/10/05 07:36:25;;;;;;;;;;;;;;;10.74;52.22;94895.53;5020478;28;19921;-62
2021/10/05 07:38:50;;;;;;;;;;;;;;;10.75;52.37;94894.50;5020668;28;20429;-61
2021/10/05 07:41:15;;;;;;;;;;;;;;;10.93;51.57;94890.50;5018751;28;19921;-62
2021/10/05 07:43:40;;;;;;;;;;;;;;;10.91;50.30;94903.16;5017097;28;19929;-62
2021/10/05 07:46:06;;;;;;;;;;;;;;;11.05;51.64;94904.06;5020177;28;20328;-60
2021/10/05 07:48:31;;;;;;;;;;;;;;;11.13;51.20;94901.25;5020248;28;19968;-62
2021/10/05 07:50:56;;;;;;;;;;;;;;;11.22;50.91;94901.09;5018796;28;19925;-59
2021/10/05 07:53:21;;;;;;;;;;;;;;;11.26;50.12;94889.81;5019065;28;19995;-62
2021/10/05 07:55:47;;;;;;;;;;;;;;;11.48;50.14;94889.69;5020086;28;19925;-62
2021/10/05 07:58:12;;;;;;;;;;;;;;;11.61;49.36;94888.06;5018881;28;19929;-62
2021/10/05 08:00:37;;;;;;;;;;;;;;;11.56;49.07;94896.66;5016937;28;19957;-62
2021/10/05 08:03:03;;;;;;;;;;;;;;;11.31;48.48;94889.22;5018944;28;20049;-61
2021/10/05 08:05:28;;;;;;;;;;;;;;;11.52;48.76;94893.59;5017354;28;19924;-61
2021/10/05 08:07:57;;;;;;;;;;;;;;;11.18;50.70;94887.34;5019367;28;19927;-60
2021/10/05 08:10:22;;;;;;;;;;;;;;;11.19;50.85;94885.50;5019550;28;19917;-63
2021/10/05 08:12:47;;;;;;;;;;;;;;;11.18;50.01;94898.00;5019359;28;19931;-63
2021/10/05 08:15:12;;;;;;;;;;;;;;;10.95;49.39;94903.63;5019236;28;20310;-60
2021/10/05 08:17:39;;;;;;;;;;;;;;;11.32;49.66;94896.19;5017726;28;19932;-60
2021/10/05 08:20:04;;;;;;;;;;;;;;;10.64;51.27;94897.69;5018589;28;20405;-60
2021/10/05 08:22:29;;;;;;;;;;;;;;;11.00;50.58;94885.19;5019410;28;19924;-61
2021/10/05 08:24:54;;;;;;;;;;;;;;;10.59;48.94;94897.47;5019135;28;20382;-60
2021/10/05 08:27:20;;;;;;;;;;;;;;;10.68;52.12;94896.28;5018408;28;20223;-62
2021/10/05 08:29:47;;;;;;;;;;;;;;;10.94;50.95;94889.47;5016142;28;20483;-62
2021/10/05 08:32:14;;;;;;;;;;;;;;;10.95;51.10;94884.97;5021093;28;19974;-60
2021/10/05 08:34:39;;;;;;;;;;;;;;;11.22;49.91;94887.78;5017045;28;20059;-62
2021/10/05 08:37:04;;;;;;;;;;;;;;;11.29;50.36;94888.59;5018574;28;20532;-62
2021/10/05 08:39:30;;;;;;;;;;;;;;;11.13;49.47;94879.13;5018761;28;19929;-62
2021/10/05 08:41:55;;;;;;;;;;;;;;;11.52;49.26;94882.09;5010511;28;20405;-61
2021/10/05 08:44:22;;;;;;;;;;;;;;;11.60;48.99;94879.22;5019476;28;19956;-60
2021/10/05 08:46:47;;;;;;;;;;;;;;;10.60;49.39;94886.63;5019829;28;19921;-61
2021/10/05 08:49:13;;;;;;;;;;;;;;;10.20;50.72;94886.38;5019377;28;20298;-62
2021/10/05 08:51:38;;;;;;;;;;;;;;;10.85;49.58;94882.69;5019240;28;19921;-62
2021/10/05 08:54:04;;;;;;;;;;;;;;;11.23;49.47;94874.25;5019292;28;19935;-62
2021/10/05 08:56:29;;;;;;;;;;;;;;;11.18;49.90;94875.88;5017525;28;19964;-63
2021/10/05 08:58:54;;;;;;;;;;;;;;;11.09;50.70;94878.69;5017895;28;19972;-62
2021/10/05 09:01:20;;;;;;;;;;;;;;;11.40;48.80;94884.53;5017172;28;20429;-61
2021/10/05 09:03:52;;;;;;;;;;;;;;;11.02;50.23;94882.34;5017762;28;19929;-62
2021/10/05 09:06:17;;;;;;;;;;;;;;;10.67;50.62;94869.91;5016024;28;19924;-62
2021/10/05 09:08:43;;;;;;;;;;;;;;;11.10;49.96;94877.69;5019216;28;20141;-63
2021/10/05 09:11:09;;;;;;;;;;;;;;;11.33;49.34;94881.03;5018820;28;19979;-63
2021/10/05 09:13:37;;;;;;;;;;;;;;;11.34;49.84;94872.84;5017560;28;20123;-63
2021/10/05 09:16:02;;;;;;;;;;;;;;;11.46;49.62;94869.59;5018101;28;19929;-63
2021/10/05 09:18:28;;;;;;;;;;;;;;;11.54;49.22;94874.72;5012170;28;20338;-62
2021/10/05 09:20:53;;;;;;;;;;;;;;;11.49;48.28;94872.66;5016173;28;19920;-60
2021/10/05 09:23:18;;;;;;;;;;;;;;;11.70;48.77;94867.38;5017319;28;19925;-62
2021/10/05 09:25:45;;;;;;;;;;;;;;;11.63;48.06;94852.16;5019428;28;19929;-61
2021/10/05 09:28:13;;;;;;;;;;;;;;;11.02;48.13;94856.53;5019258;28;20113;-61
2021/10/05 09:30:38;;;;;;;;;;;;;;;9.76;51.04;94862.47;5019003;28;19957;-61
2021/10/05 09:33:04;;;;;;;;;;;;;;;11.11;49.95;94843.84;5019004;28;20329;-62
2021/10/05 09:35:39;;;;;;;;;;;;;;;11.31;49.65;94853.75;5019162;28;20052;-63
2021/10/05 09:38:17;;;;;;;;;;;;;;;11.70;47.71;94851.38;5021328;28;19921;-62
2021/10/05 09:40:43;;;;;;;;;;;;;;;11.95;46.42;94843.56;5021385;28;19964;-62
2021/10/05 09:43:18;;;;;;;;;;;;;;;12.46;46.41;94856.47;5021788;28;20158;-62
2021/10/05 09:45:43;;;;;;;;;;;;;;;12.35;45.47;94850.75;5021487;28;20309;-62
2021/10/05 09:48:09;;;;;;;;;;;;;;;12.36;46.30;94841.72;5020207;28;19925;-63
2021/10/05 09:50:34;;;;;;;;;;;;;;;13.03;45.00;94837.22;5020823;28;19925;-63
2021/10/05 09:53:01;;;;;;;;;;;;;;;10.83;48.69;94855.41;5020324;28;19921;-63
2021/10/05 09:55:30;;;;;;;;;;;;;;;11.55;46.51;94844.38;5022188;28;19921;-63
2021/10/05 09:57:55;;;;;;;;;;;;;;;12.03;46.72;94853.22;5020294;28;19921;-63
2021/10/05 10:00:21;;;;;;;;;;;;;;;11.56;47.61;94855.88;5021306;28;19925;-60
2021/10/05 10:02:47;;;;;;;;;;;;;;;11.62;47.15;94853.19;5020721;28;20303;-61
2021/10/05 10:05:17;;;;;;;;;;;;;;;11.57;48.08;94842.34;5017465;28;19917;-59
2021/10/05 10:07:43;;;;;;;;;;;;;;;12.62;45.07;94853.34;5014160;28;20038;-63
2021/10/05 10:10:10;;;;;;;;;;;;;;;12.48;43.99;94851.75;5020702;28;19917;-60
2021/10/05 10:12:36;;;;;;;;;;;;;;;12.90;45.69;94849.56;5021690;28;20544;-61
2021/10/05 10:15:03;;;;;;;;;;;;;;;13.56;43.21;94849.47;5013534;28;20377;-59
2021/10/05 10:17:28;;;;;;;;;;;;;;;10.54;49.01;94855.47;5014023;28;20024;-60
2021/10/05 10:19:53;;;;;;;;;;;;;;;11.42;48.49;94849.69;5011368;28;19929;-60
2021/10/05 10:22:18;;;;;;;;;;;;;;;12.67;45.45;94837.53;5021031;28;19943;-62
2021/10/05 10:24:44;;;;;;;;;;;;;;;13.42;43.22;94834.53;5021709;28;19946;-62
2021/10/05 10:27:10;;;;;;;;;;;;;;;12.30;44.77;94841.72;5019288;28;19932;-61
2021/10/05 10:29:35;;;;;;;;;;;;;;;11.27;47.71;94837.34;5020904;28;20433;-61
2021/10/05 10:32:10;;;;;;;;;;;;;;;13.18;44.38;94836.94;5017627;28;19953;-61
2021/10/05 10:34:36;;;;;;;;;;;;;;;13.25;42.59;94840.38;5019762;28;21181;-61
2021/10/05 10:37:08;;;;;;;;;;;;;;;14.18;42.05;94844.50;5012694;28;20178;-63
2021/10/05 10:39:38;;;;;;;;;;;;;;;14.30;41.53;94842.72;5019883;28;19974;-61
2021/10/05 10:42:04;;;;;;;;;;;;;;;14.32;41.23;94837.97;5017492;28;20003;-61
2021/10/05 10:44:34;;;;;;;;;;;;;;;14.27;41.98;94829.78;5021517;28;19925;-60
2021/10/05 10:47:15;;;;;;;;;;;;;;;14.10;40.92;94826.06;5011631;28;19957;-63
2021/10/05 10:49:41;;;;;;;;;;;;;;;14.33;39.96;94828.91;5019203;28;19917;-63
2021/10/05 10:52:07;;;;;;;;;;;;;;;13.15;42.38;94819.47;5019947;28;20317;-61
2021/10/05 10:54:32;;;;;;;;;;;;;;;13.98;42.26;94813.38;5021585;28;19921;-61
2021/10/05 10:57:09;;;;;;;;;;;;;;;14.84;40.05;94807.38;5020023;28;19976;-61
2021/10/05 10:59:34;;;;;;;;;;;;;;;15.02;39.90;94791.50;5019500;28;20491;-62
2021/10/05 11:02:00;;;;;;;;;;;;;;;15.18;39.20;94796.22;5021444;28;19925;-62
2021/10/05 11:04:26;;;;;;;;;;;;;;;15.70;38.49;94796.72;5021069;28;20293;-63
2021/10/05 11:06:52;;;;;;;;;;;;;;;15.74;37.19;94787.97;5013657;28;19933;-62
2021/10/05 11:09:18;;;;;;;;;;;;;;;16.42;35.32;94786.81;5017254;28;19925;-62
2021/10/05 11:11:50;;;;;;;;;;;;;;;16.87;35.26;94779.94;5019564;28;19921;-62
2021/10/05 11:14:31;;;;;;;;;;;;;;;16.51;36.60;94774.69;5018542;28;19921;-62
2021/10/05 11:17:02;;;;;;;;;;;;;;;16.42;36.61;94775.28;5017615;28;19965;-62
2021/10/05 11:19:28;;;;;;;;;;;;;;;16.63;35.99;94777.31;5015541;28;19929;-62
2021/10/05 11:21:53;;;;;;;;;;;;;;;16.65;36.55;94771.72;5018879;28;19952;-62
2021/10/05 11:24:19;;;;;;;;;;;;;;;16.91;34.46;94764.16;5020497;28;19960;-63
2021/10/05 11:26:48;;;;;;;;;;;;;;;17.03;33.82;94759.56;5020093;28;20349;-63
2021/10/05 11:29:23;;;;;;;;;;;;;;;16.97;34.63;94762.41;5021408;28;19928;-61
2021/10/05 11:31:49;;;;;;;;;;;;;;;16.86;36.13;94754.13;5026575;28;19925;-61
2021/10/05 11:34:15;;;;;;;;;;;;;;;17.20;35.02;94739.97;5020767;28;20424;-63
2021/10/05 11:36:41;;;;;;;;;;;;;;;17.22;33.73;94729.81;5021227;28;20201;-63
2021/10/05 11:39:06;;;;;;;;;;;;;;;16.98;33.28;94724.53;5020395;28;19928;-63
2021/10/05 11:41:36;;;;;;;;;;;;;;;16.35;36.67;94727.06;5020631;28;19932;-63
2021/10/05 11:44:07;;;;;;;;;;;;;;;16.49;36.09;94731.09;5020031;28;19928;-62
2021/10/05 11:46:33;;;;;;;;;;;;;;;16.21;34.37;94735.34;5016813;28;19921;-63
2021/10/05 11:48:58;;;;;;;;;;;;;;;16.02;35.54;94737.34;5020791;28;20294;-63
2021/10/05 11:51:24;;;;;;;;;;;;;;;16.26;33.17;94719.31;5020272;28;20450;-62
2021/10/05 11:53:49;;;;;;;;;;;;;;;16.15;33.18;94725.56;5019051;28;19924;-61
2021/10/05 11:56:15;;;;;;;;;;;;;;;16.41;35.52;94719.94;5018675;28;20225;-61
2021/10/05 11:58:44;;;;;;;;;;;;;;;15.81;35.96;94718.09;5020136;28;19925;-62
2021/10/05 12:01:13;;;;;;;;;;;;;;;16.28;34.55;94710.25;5020223;28;19966;-61
2021/10/05 12:03:38;;;;;;;;;;;;;;;16.45;34.89;94707.66;5019898;28;20587;-62
2021/10/05 12:06:03;;;;;;;;;;;;;;;16.33;34.03;94705.78;5013514;28;20224;-63
2021/10/05 12:08:28;;;;;;;;;;;;;;;16.26;36.42;94702.41;5020186;28;20400;-63
2021/10/05 12:10:54;;;;;;;;;;;;;;;16.58;35.21;94693.13;5020258;28;19929;-63
2021/10/05 12:13:19;;;;;;;;;;;;;;;16.74;35.77;94696.94;5020476;28;20019;-62
2021/10/05 12:15:44;;;;;;;;;;;;;;;16.47;36.07;94689.44;5019023;28;20620;-63
2021/10/05 12:18:11;;;;;;;;;;;;;;;16.50;36.15;94692.47;5016482;28;20015;-63
2021/10/05 12:20:38;;;;;;;;;;;;;;;16.71;34.97;94690.16;5017901;28;21347;-64
2021/10/05 12:23:07;;;;;;;;;;;;;;;17.11;33.24;94685.81;5018047;28;19925;-65
2021/10/05 12:25:32;;;;;;;;;;;;;;;17.24;34.68;94673.09;5019876;28;19957;-64
2021/10/05 12:27:58;;;;;;;;;;;;;;;18.03;32.70;94657.88;5017924;28;20010;-64
2021/10/05 12:30:23;;;;;;;;;;;;;;;18.59;30.65;94653.41;5018852;28;19921;-64
2021/10/05 12:32:52;;;;;;;;;;;;;;;19.05;28.56;94653.06;5017719;28;19917;-62
2021/10/05 12:35:23;;;;;;;;;;;;;;;19.90;26.79;94647.22;5020299;28;19925;-62
2021/10/05 12:37:55;;;;;;;;;;;;;;;19.14;27.42;94653.41;5020550;28;20015;-62
2021/10/05 12:40:20;;;;;;;;;;;;;;;20.61;26.01;94651.31;5024919;28;20432;-61
2021/10/05 12:42:46;;;;;;;;;;;;;;;19.45;28.17;94642.88;5021577;28;19925;-62